createdAt,value
2018-01-26T00:01:44.048Z,18.03
2018-01-26T00:04:11.594Z,20.87
2018-01-26T00:06:39.231Z,20.37
2018-01-26T00:09:06.844Z,18.50
2018-01-26T00:11:34.460Z,18.97
2018-01-26T00:14:02.046Z,18.67
2018-01-26T00:16:29.658Z,15.87
2018-01-26T00:18:57.310Z,15.77
2018-01-26T00:21:24.890Z,13.43
2018-01-26T00:23:52.438Z,15.40
2018-01-26T00:26:20.031Z,13.70
2018-01-26T00:28:47.602Z,15.23
2018-01-26T00:31:15.194Z,12.10
2018-01-26T00:33:42.745Z,11.97
2018-01-26T00:36:10.298Z,13.00
2018-01-26T00:38:37.896Z,13.33
2018-01-26T00:41:05.437Z,15.80
2018-01-26T00:43:33.767Z,16.07
2018-01-26T00:46:01.391Z,16.50
2018-01-26T00:48:29.003Z,16.17
2018-01-26T00:50:56.619Z,16.57
2018-01-26T00:53:24.162Z,13.90
2018-01-26T00:55:51.701Z,16.37
2018-01-26T00:58:19.315Z,15.43
2018-01-26T01:00:46.879Z,15.10
2018-01-26T01:03:14.545Z,15.03
2018-01-26T01:05:42.110Z,14.00
2018-01-26T01:08:09.666Z,11.80
2018-01-26T01:10:37.323Z,12.47
2018-01-26T01:13:04.870Z,13.43
2018-01-26T01:15:32.519Z,13.03
2018-01-26T01:18:00.132Z,13.47
2018-01-26T01:20:27.678Z,13.07
2018-01-26T01:22:55.244Z,12.37
2018-01-26T01:25:22.820Z,12.17
2018-01-26T01:27:50.592Z,11.10
2018-01-26T01:30:18.134Z,8.87
2018-01-26T01:32:45.730Z,9.00
2018-01-26T01:35:13.296Z,9.07
2018-01-26T01:37:40.842Z,8.93
2018-01-26T01:40:08.499Z,9.03
2018-01-26T01:42:36.707Z,8.80
2018-01-26T01:45:04.336Z,6.97
2018-01-26T01:47:31.971Z,8.70
2018-01-26T01:49:59.587Z,8.77
2018-01-26T01:52:27.163Z,9.80
2018-01-26T01:54:54.707Z,10.03
2018-01-26T01:57:22.306Z,8.57
2018-01-26T01:59:49.846Z,10.57
2018-01-26T02:02:17.401Z,9.33
2018-01-26T02:04:44.955Z,12.43
2018-01-26T02:07:12.502Z,13.53
2018-01-26T02:09:40.093Z,12.00
2018-01-26T02:12:07.639Z,11.73
2018-01-26T02:14:35.278Z,12.07
2018-01-26T02:17:02.850Z,11.40
2018-01-26T02:19:30.406Z,12.37
2018-01-26T02:21:58.031Z,12.10
2018-01-26T02:24:25.639Z,14.17
2018-01-26T02:26:53.251Z,13.33
2018-01-26T02:29:20.830Z,11.30
2018-01-26T02:31:48.435Z,13.37
2018-01-26T02:34:16.022Z,12.40
2018-01-26T02:36:43.574Z,11.43
2018-01-26T02:39:11.118Z,13.10
2018-01-26T02:41:39.590Z,12.40
2018-01-26T02:44:07.206Z,13.10
2018-01-26T02:46:34.823Z,10.93
2018-01-26T02:49:02.485Z,8.80
2018-01-26T02:51:30.096Z,8.30
2018-01-26T02:53:57.711Z,9.37
2018-01-26T02:56:25.251Z,11.93
2018-01-26T02:58:52.851Z,9.73
2018-01-26T03:01:20.459Z,9.80
2018-01-26T03:03:48.012Z,11.90
2018-01-26T03:06:15.562Z,11.83
2018-01-26T03:08:43.101Z,13.00
2018-01-26T03:11:10.686Z,14.00
2018-01-26T03:13:38.286Z,13.90
2018-01-26T03:16:05.827Z,14.20
2018-01-26T03:18:33.439Z,12.80
2018-01-26T03:21:00.988Z,14.73
2018-01-26T03:23:28.636Z,13.03
2018-01-26T03:25:56.186Z,10.90
2018-01-26T03:28:23.770Z,10.70
2018-01-26T03:30:51.392Z,13.03
2018-01-26T03:33:18.939Z,14.07
2018-01-26T03:35:46.595Z,15.20
2018-01-26T03:38:14.198Z,13.33
2018-01-26T03:40:41.759Z,12.27
2018-01-26T03:43:09.389Z,11.07
2018-01-26T03:45:36.989Z,9.23
2018-01-26T03:48:04.635Z,9.60
2018-01-26T03:50:32.240Z,10.20
2018-01-26T03:52:59.843Z,9.63
2018-01-26T03:55:27.394Z,12.57
2018-01-26T03:57:54.941Z,11.47
2018-01-26T04:00:22.539Z,14.83
2018-01-26T04:02:50.082Z,14.03
2018-01-26T04:05:17.684Z,14.10
2018-01-26T04:07:45.232Z,12.20
2018-01-26T04:10:12.773Z,11.30
2018-01-26T04:12:40.423Z,14.40
2018-01-26T04:15:08.006Z,13.60
2018-01-26T04:17:35.556Z,15.50
2018-01-26T04:20:03.154Z,16.37
2018-01-26T04:22:30.702Z,15.67
2018-01-26T04:24:58.290Z,15.80
2018-01-26T04:27:25.889Z,20.93
2018-01-26T04:29:53.491Z,22.93
2018-01-26T04:32:21.058Z,25.03
2018-01-26T04:34:48.594Z,25.97
2018-01-26T04:37:16.182Z,23.90
2018-01-26T04:39:43.781Z,25.30
2018-01-26T04:42:11.322Z,25.27
2018-01-26T04:44:38.879Z,22.60
2018-01-26T04:47:06.488Z,23.30
2018-01-26T04:49:34.169Z,22.10
2018-01-26T04:52:01.711Z,19.70
2018-01-26T04:54:29.313Z,18.93
2018-01-26T04:56:56.862Z,17.40
2018-01-26T04:59:24.459Z,15.13
2018-01-26T05:01:52.050Z,17.30
2018-01-26T05:04:19.666Z,14.93
2018-01-26T05:06:47.208Z,17.17
2018-01-26T05:09:14.823Z,13.20
2018-01-26T05:11:42.368Z,14.20
2018-01-26T05:14:09.955Z,16.40
2018-01-26T05:16:37.502Z,14.30
2018-01-26T05:19:05.113Z,12.87
2018-01-26T05:21:32.666Z,11.90
2018-01-26T05:24:00.212Z,15.70
2018-01-26T05:26:27.884Z,28.63
2018-01-26T05:28:55.427Z,25.97
2018-01-26T05:31:22.970Z,24.93
2018-01-26T05:33:50.580Z,27.10
2018-01-26T05:36:18.123Z,25.10
2018-01-26T05:38:45.761Z,24.57
2018-01-26T05:41:13.303Z,24.23
2018-01-26T05:43:40.850Z,25.23
2018-01-26T05:46:08.409Z,22.37
2018-01-26T05:48:36.010Z,26.80
2018-01-26T05:51:03.655Z,26.10
2018-01-26T05:53:31.190Z,27.23
2018-01-26T05:55:58.852Z,25.33
2018-01-26T05:58:26.439Z,26.00
2018-01-26T06:00:53.986Z,26.50
2018-01-26T06:03:21.599Z,27.00
2018-01-26T06:05:49.142Z,29.07
2018-01-26T06:08:16.685Z,27.37
2018-01-26T06:10:44.236Z,23.63
2018-01-26T06:13:11.826Z,25.13
2018-01-26T06:15:39.472Z,26.93
2018-01-26T06:18:07.043Z,34.07
2018-01-26T06:20:34.592Z,43.50
2018-01-26T06:23:02.200Z,36.53
2018-01-26T06:25:29.756Z,34.50
2018-01-26T06:27:57.352Z,39.73
2018-01-26T06:30:24.999Z,48.17
2018-01-26T06:32:52.600Z,48.60
2018-01-26T06:35:20.148Z,39.60
2018-01-26T06:37:47.695Z,50.83
2018-01-26T06:40:15.242Z,41.27
2018-01-26T06:42:42.791Z,44.43
2018-01-26T06:45:10.351Z,39.13
2018-01-26T06:47:37.898Z,38.53
2018-01-26T06:50:05.478Z,32.60
2018-01-26T06:52:33.084Z,30.10
2018-01-26T06:55:00.634Z,30.87
2018-01-26T06:57:28.186Z,32.83
2018-01-26T06:59:55.734Z,36.07
2018-01-26T07:02:23.322Z,39.27
2018-01-26T07:04:50.864Z,33.20
2018-01-26T07:07:18.403Z,31.23
2018-01-26T07:09:45.986Z,31.03
2018-01-26T07:12:13.533Z,30.50
2018-01-26T07:14:41.083Z,30.77
2018-01-26T07:17:08.682Z,28.90
2018-01-26T07:19:36.326Z,30.80
2018-01-26T07:22:03.926Z,30.30
2018-01-26T07:24:31.470Z,26.70
2018-01-26T07:26:59.025Z,27.57
2018-01-26T07:29:26.637Z,28.90
2018-01-26T07:31:54.246Z,29.50
2018-01-26T07:34:21.848Z,28.30
2018-01-26T07:36:49.436Z,30.20
2018-01-26T07:39:16.990Z,29.90
2018-01-26T07:41:44.530Z,28.13
2018-01-26T07:44:12.086Z,25.57
2018-01-26T07:46:39.674Z,28.30
2018-01-26T07:49:07.230Z,26.67
2018-01-26T07:51:34.832Z,25.33
2018-01-26T07:54:02.452Z,25.50
2018-01-26T07:56:30.159Z,24.70
2018-01-26T07:58:57.703Z,26.00
2018-01-26T08:01:25.259Z,25.90
2018-01-26T08:03:52.803Z,26.60
2018-01-26T08:06:20.569Z,29.17
2018-01-26T08:08:48.012Z,29.87
2018-01-26T08:11:15.699Z,29.87
2018-01-26T08:13:43.239Z,33.70
2018-01-26T08:16:10.842Z,36.00
2018-01-26T08:18:38.390Z,29.20
2018-01-26T08:21:05.930Z,28.73
2018-01-26T08:23:33.483Z,33.10
2018-01-26T08:26:01.024Z,33.67
2018-01-26T08:28:28.677Z,29.10
2018-01-26T08:30:56.219Z,31.73
2018-01-26T08:33:23.822Z,27.40
2018-01-26T08:35:51.372Z,26.90
2018-01-26T08:38:18.974Z,26.50
2018-01-26T08:40:46.523Z,28.20
2018-01-26T08:43:14.066Z,30.77
2018-01-26T08:45:41.655Z,27.57
2018-01-26T08:48:09.205Z,26.93
2018-01-26T08:50:36.747Z,27.90
2018-01-26T08:53:04.294Z,25.23
2018-01-26T08:55:31.883Z,25.07
2018-01-26T08:57:59.431Z,27.60
2018-01-26T09:00:27.013Z,25.83
2018-01-26T09:02:54.608Z,27.20
2018-01-26T09:05:22.210Z,28.07
2018-01-26T09:07:49.819Z,31.13
2018-01-26T09:10:17.417Z,31.93
2018-01-26T09:12:45.019Z,30.40
2018-01-26T09:15:12.636Z,34.67
2018-01-26T09:17:40.174Z,33.90
2018-01-26T09:20:07.712Z,30.70
2018-01-26T09:22:35.267Z,32.83
2018-01-26T09:25:02.811Z,33.70
2018-01-26T09:27:30.395Z,28.37
2018-01-26T09:29:58.047Z,30.00
2018-01-26T09:32:25.643Z,29.40
2018-01-26T09:34:53.199Z,29.93
2018-01-26T09:37:20.844Z,29.30
2018-01-26T09:39:48.470Z,27.50
2018-01-26T09:42:16.068Z,31.20
2018-01-26T09:44:43.616Z,31.50
2018-01-26T09:47:11.175Z,31.60
2018-01-26T09:49:38.724Z,34.30
2018-01-26T09:52:06.362Z,37.70
2018-01-26T09:54:33.902Z,35.00
2018-01-26T09:57:01.452Z,30.60
2018-01-26T09:59:29.042Z,26.23
2018-01-26T10:01:56.590Z,30.30
2018-01-26T10:04:24.240Z,30.93
2018-01-26T10:06:51.838Z,28.30
2018-01-26T10:09:19.435Z,25.10
2018-01-26T10:11:46.983Z,26.60
2018-01-26T10:14:14.517Z,25.07
2018-01-26T10:16:42.110Z,29.00
2018-01-26T10:19:10.296Z,26.80
2018-01-26T10:21:38.438Z,24.40
2018-01-26T10:24:06.001Z,23.33
2018-01-26T10:26:34.190Z,25.60
2018-01-26T10:29:01.796Z,27.93
2018-01-26T10:31:29.936Z,32.10
2018-01-26T10:33:58.290Z,27.47
2018-01-26T10:36:25.898Z,25.23
2018-01-26T10:38:54.045Z,28.27
2018-01-26T10:41:21.632Z,33.03
2018-01-26T10:43:49.174Z,27.80
2018-01-26T10:46:16.770Z,30.13
2018-01-26T10:48:44.314Z,26.03
2018-01-26T10:51:11.855Z,25.03
2018-01-26T10:53:39.499Z,30.90
2018-01-26T10:56:07.037Z,29.83
2018-01-26T10:58:35.324Z,25.57
2018-01-26T11:01:02.944Z,28.33
2018-01-26T11:03:30.493Z,35.23
2018-01-26T11:05:58.119Z,22.60
2018-01-26T11:08:25.678Z,27.50
2018-01-26T11:10:53.230Z,31.53
2018-01-26T11:13:21.583Z,32.43
2018-01-26T11:15:49.144Z,50.10
2018-01-26T11:18:16.807Z,30.67
2018-01-26T11:20:44.432Z,24.73
2018-01-26T11:23:11.990Z,23.07
2018-01-26T11:25:39.554Z,27.70
2018-01-26T11:28:07.163Z,25.87
2018-01-26T11:30:34.814Z,26.47
2018-01-26T11:33:02.371Z,27.27
2018-01-26T11:35:29.984Z,24.50
2018-01-26T11:37:58.199Z,25.40
2018-01-26T11:40:25.759Z,26.03
2018-01-26T11:42:53.389Z,22.33
2018-01-26T11:45:21.010Z,23.90
